createdAt,value
2022-08-23T00:02:28.270Z,16.00
2022-08-23T00:05:08.047Z,15.90
2022-08-23T00:07:43.823Z,15.90
2022-08-23T00:10:16.213Z,15.90
2022-08-23T00:12:46.245Z,16.10
2022-08-23T00:15:16.637Z,16.10
2022-08-23T00:17:44.477Z,16.10
2022-08-23T00:20:15.926Z,16.00
2022-08-23T00:22:43.927Z,15.90
2022-08-23T00:25:13.314Z,15.90
2022-08-23T00:27:41.639Z,15.90
2022-08-23T00:30:12.424Z,15.80
2022-08-23T00:32:43.117Z,15.80
2022-08-23T00:35:12.975Z,15.90
2022-08-23T00:38:31.808Z,15.80
2022-08-23T00:40:39.449Z,15.80
2022-08-23T00:43:30.414Z,15.80
2022-08-23T00:46:22.748Z,15.80
2022-08-23T00:48:51.473Z,15.70
2022-08-23T00:51:28.180Z,15.70
2022-08-23T00:54:01.686Z,15.70
2022-08-23T00:56:33.771Z,15.70
2022-08-23T00:59:02.074Z,15.70
2022-08-23T01:01:30.114Z,15.70
2022-08-23T01:04:04.044Z,15.60
2022-08-23T01:06:38.365Z,15.60
2022-08-23T01:09:16.707Z,15.60
2022-08-23T01:12:00.538Z,15.60
2022-08-23T01:14:38.269Z,15.60
2022-08-23T01:17:09.675Z,15.60
2022-08-23T01:19:44.131Z,15.60
2022-08-23T01:22:34.394Z,15.50
2022-08-23T01:25:07.562Z,15.60
2022-08-23T01:27:43.031Z,15.70
2022-08-23T01:30:18.045Z,15.60
2022-08-23T01:32:57.184Z,15.60
2022-08-23T01:35:34.062Z,15.60
2022-08-23T01:38:02.792Z,15.50
2022-08-23T01:40:31.402Z,15.50
2022-08-23T01:42:59.970Z,15.50
2022-08-23T01:45:28.719Z,15.50
2022-08-23T01:47:58.154Z,15.40
2022-08-23T01:50:28.570Z,15.50
2022-08-23T01:52:57.347Z,15.50
2022-08-23T01:55:27.184Z,15.40
2022-08-23T01:57:58.553Z,15.40
2022-08-23T02:00:30.879Z,15.40
2022-08-23T02:02:59.896Z,15.50
2022-08-23T02:05:28.636Z,15.50
2022-08-23T02:07:56.811Z,15.60
2022-08-23T02:10:24.614Z,15.60
2022-08-23T02:12:52.518Z,15.60
2022-08-23T02:15:26.483Z,15.60
2022-08-23T02:17:54.926Z,15.60
2022-08-23T02:20:22.726Z,15.70
2022-08-23T02:22:50.467Z,15.70
2022-08-23T02:25:18.322Z,15.60
2022-08-23T02:27:46.298Z,15.70
2022-08-23T02:30:14.198Z,15.70
2022-08-23T02:32:42.424Z,15.60
2022-08-23T02:35:11.865Z,15.60
2022-08-23T02:37:39.569Z,15.60
2022-08-23T02:40:07.930Z,15.60
2022-08-23T02:42:35.782Z,15.60
2022-08-23T02:45:03.921Z,15.50
2022-08-23T02:47:35.410Z,15.50
2022-08-23T02:50:14.286Z,15.50
2022-08-23T02:52:42.030Z,15.40
2022-08-23T02:55:10.571Z,15.40
2022-08-23T02:57:40.151Z,15.30
2022-08-23T03:00:11.471Z,15.10
2022-08-23T03:02:41.017Z,15.00
2022-08-23T03:05:10.164Z,15.00
2022-08-23T03:07:38.576Z,15.00
2022-08-23T03:10:08.277Z,14.90
2022-08-23T03:12:38.579Z,14.90
2022-08-23T03:15:07.119Z,14.90
2022-08-23T03:17:35.914Z,14.90
2022-08-23T03:20:08.558Z,14.90
2022-08-23T03:22:36.295Z,14.90
2022-08-23T03:25:05.723Z,14.90
2022-08-23T03:27:45.812Z,14.90
2022-08-23T03:30:19.174Z,14.90
2022-08-23T03:32:55.678Z,14.90
2022-08-23T03:35:23.658Z,14.90
2022-08-23T03:37:55.326Z,15.00
2022-08-23T03:40:25.077Z,15.00
2022-08-23T03:42:53.804Z,15.10
2022-08-23T03:45:24.792Z,15.10
2022-08-23T03:47:52.736Z,15.20
2022-08-23T03:50:21.347Z,15.20
2022-08-23T03:52:49.139Z,15.30
2022-08-23T03:55:17.976Z,15.30
2022-08-23T03:57:49.342Z,15.30
2022-08-23T04:00:20.549Z,15.30
2022-08-23T04:02:50.926Z,15.30
2022-08-23T04:05:19.177Z,15.30
2022-08-23T04:08:09.546Z,15.20
2022-08-23T04:10:39.526Z,15.20
2022-08-23T04:13:09.400Z,15.20
2022-08-23T04:15:37.478Z,15.20
2022-08-23T04:18:09.559Z,15.20
2022-08-23T04:20:41.963Z,15.20
2022-08-23T04:23:11.065Z,15.20
2022-08-23T04:25:53.934Z,15.10
2022-08-23T04:28:22.793Z,15.20
2022-08-23T04:30:52.353Z,15.20
2022-08-23T04:33:24.629Z,15.20
2022-08-23T04:35:55.969Z,15.20
2022-08-23T04:38:48.602Z,15.10
2022-08-23T04:41:54.880Z,15.10
2022-08-23T04:44:26.009Z,15.10
2022-08-23T04:47:04.033Z,15.10
2022-08-23T04:49:32.430Z,15.10
2022-08-23T04:52:00.639Z,15.10
2022-08-23T04:54:29.407Z,15.00
2022-08-23T04:57:17.383Z,15.10
2022-08-23T04:59:46.538Z,15.10
2022-08-23T05:02:17.958Z,15.10
2022-08-23T05:04:45.784Z,15.10
2022-08-23T05:07:15.622Z,15.10
2022-08-23T05:09:43.741Z,15.10
2022-08-23T05:12:13.905Z,15.10
2022-08-23T05:14:44.320Z,15.00
2022-08-23T05:17:16.396Z,15.00
2022-08-23T05:19:47.283Z,15.00
2022-08-23T05:22:16.237Z,15.00
2022-08-23T05:25:19.222Z,15.00
2022-08-23T05:27:47.554Z,15.00
2022-08-23T05:30:21.208Z,14.90
2022-08-23T05:32:52.288Z,15.00
2022-08-23T05:35:20.120Z,14.90
2022-08-23T05:37:47.933Z,15.00
2022-08-23T05:40:19.040Z,15.00
2022-08-23T05:43:03.612Z,15.00
2022-08-23T05:45:35.629Z,15.00
2022-08-23T05:48:07.002Z,15.10
2022-08-23T05:50:45.400Z,15.20
2022-08-23T05:53:13.256Z,15.30
2022-08-23T05:55:44.331Z,15.40
2022-08-23T05:58:19.522Z,15.50
2022-08-23T06:00:47.491Z,15.60
2022-08-23T06:03:15.452Z,15.50
2022-08-23T06:05:58.020Z,15.50
2022-08-23T06:08:26.068Z,15.60
2022-08-23T06:11:09.578Z,15.50
2022-08-23T06:13:46.591Z,15.50
2022-08-23T06:16:19.809Z,15.70
2022-08-23T06:18:48.254Z,15.80
2022-08-23T06:21:36.290Z,15.80
2022-08-23T06:24:05.071Z,15.80
2022-08-23T06:26:38.351Z,15.90
2022-08-23T06:29:09.652Z,15.90
2022-08-23T06:31:47.435Z,15.90
2022-08-23T06:34:36.154Z,15.90
2022-08-23T06:37:24.505Z,16.00
2022-08-23T06:40:21.692Z,16.00
2022-08-23T06:43:00.878Z,16.20
2022-08-23T06:45:53.795Z,16.20
2022-08-23T06:48:26.159Z,16.30
2022-08-23T06:50:53.950Z,16.30
2022-08-23T06:53:28.191Z,16.40
2022-08-23T06:56:30.597Z,16.50
2022-08-23T06:59:13.096Z,16.60
2022-08-23T07:02:05.564Z,16.60
2022-08-23T07:04:55.939Z,16.70
2022-08-23T07:07:41.268Z,16.80
2022-08-23T07:10:15.026Z,16.80
2022-08-23T07:12:43.706Z,16.90
2022-08-23T07:15:14.341Z,17.10
2022-08-23T07:17:47.422Z,17.20
2022-08-23T07:20:15.760Z,17.30
2022-08-23T07:22:45.467Z,17.40
2022-08-23T07:25:14.562Z,17.40
2022-08-23T07:27:46.966Z,17.50
2022-08-23T07:30:16.499Z,17.60
2022-08-23T07:32:48.735Z,17.70
2022-08-23T07:35:22.449Z,17.70
2022-08-23T07:37:52.998Z,17.80
2022-08-23T07:40:21.909Z,17.80
2022-08-23T07:42:57.360Z,17.90
2022-08-23T07:45:33.658Z,17.90
2022-08-23T07:48:02.771Z,17.90
2022-08-23T07:50:36.192Z,18.00
2022-08-23T07:53:05.591Z,18.00
2022-08-23T07:55:34.328Z,18.10
2022-08-23T07:58:28.870Z,18.20
2022-08-23T08:01:16.370Z,18.30
2022-08-23T08:03:50.899Z,18.40
2022-08-23T08:06:29.459Z,18.30
2022-08-23T08:08:58.549Z,18.20
2022-08-23T08:11:34.474Z,18.10
2022-08-23T08:14:07.864Z,18.10
2022-08-23T08:16:40.582Z,18.20
2022-08-23T08:19:12.109Z,18.30
2022-08-23T08:21:58.578Z,18.40
2022-08-23T08:24:42.864Z,18.60
2022-08-23T08:27:13.183Z,18.70
2022-08-23T08:29:42.453Z,18.90
2022-08-23T08:32:14.074Z,18.90
2022-08-23T08:34:43.117Z,19.00
2022-08-23T08:37:12.078Z,18.90
2022-08-23T08:39:45.742Z,18.90
2022-08-23T08:42:46.839Z,18.90
2022-08-23T08:45:23.610Z,18.90
2022-08-23T08:48:06.833Z,18.90
2022-08-23T08:50:50.007Z,19.00
2022-08-23T08:53:26.703Z,18.90
2022-08-23T08:56:21.481Z,19.00
2022-08-23T08:59:11.485Z,19.00
2022-08-23T09:01:39.767Z,19.00
2022-08-23T09:04:08.612Z,19.00
2022-08-23T09:06:43.801Z,19.10
2022-08-23T09:10:03.896Z,18.90
2022-08-23T09:12:56.615Z,19.10
2022-08-23T09:15:39.499Z,19.10
2022-08-23T09:18:15.971Z,19.20
2022-08-23T09:20:47.895Z,19.20
2022-08-23T09:23:27.268Z,19.20
2022-08-23T09:26:03.611Z,19.40
2022-08-23T09:28:37.144Z,19.40
2022-08-23T09:31:08.312Z,19.40
2022-08-23T09:33:42.317Z,19.40
2022-08-23T09:36:27.070Z,19.30
2022-08-23T09:39:01.332Z,19.30
2022-08-23T09:41:40.032Z,19.40
2022-08-23T09:44:13.805Z,19.50
2022-08-23T09:46:44.338Z,19.60
2022-08-23T09:49:26.890Z,19.80
2022-08-23T09:52:32.835Z,20.00
2022-08-23T09:55:09.890Z,20.30
2022-08-23T09:57:48.063Z,20.50
2022-08-23T10:00:22.357Z,20.70
2022-08-23T10:02:57.460Z,20.80
2022-08-23T10:05:37.204Z,20.90
2022-08-23T10:08:10.499Z,20.90
2022-08-23T10:10:51.750Z,20.90
2022-08-23T10:13:24.706Z,20.70
2022-08-23T10:15:58.555Z,20.60
2022-08-23T10:18:55.811Z,20.80
2022-08-23T10:21:37.919Z,20.90
2022-08-23T10:24:14.677Z,20.50
2022-08-23T10:27:25.615Z,20.40
2022-08-23T10:30:21.444Z,20.10
2022-08-23T10:33:18.383Z,20.20
2022-08-23T10:35:59.015Z,20.60
2022-08-23T10:38:39.264Z,20.80
2022-08-23T10:41:15.234Z,21.00
2022-08-23T10:43:54.425Z,21.20
2022-08-23T10:46:23.707Z,21.60
2022-08-23T10:48:58.415Z,21.70
2022-08-23T10:51:34.119Z,22.00
2022-08-23T10:54:12.829Z,22.10
2022-08-23T10:56:50.906Z,22.00
2022-08-23T10:59:26.444Z,22.10
2022-08-23T11:02:10.544Z,22.30
2022-08-23T11:05:17.321Z,23.00
2022-08-23T11:07:59.248Z,22.90
2022-08-23T11:10:39.247Z,21.70
2022-08-23T11:13:56.371Z,21.80
2022-08-23T11:16:30.217Z,21.90
2022-08-23T11:18:58.690Z,22.00
2022-08-23T11:21:39.965Z,21.60
2022-08-23T11:24:32.381Z,21.50
2022-08-23T11:27:06.646Z,21.40
2022-08-23T11:29:40.114Z,21.20
2022-08-23T11:32:33.533Z,21.30
2022-08-23T11:35:12.277Z,20.90
2022-08-23T11:38:02.266Z,20.90
2022-08-23T11:40:52.530Z,21.00
2022-08-23T11:43:39.100Z,21.10
2022-08-23T11:46:13.927Z,21.20
2022-08-23T11:48:49.132Z,21.30
2022-08-23T11:51:32.133Z,21.80
2022-08-23T11:54:18.246Z,22.60
2022-08-23T11:56:52.428Z,22.60
2022-08-23T11:59:45.717Z,22.70
2022-08-23T12:02:35.039Z,22.80
2022-08-23T12:05:37.500Z,23.20
2022-08-23T12:08:05.854Z,23.70
2022-08-23T12:10:42.655Z,22.90
2022-08-23T12:13:22.563Z,22.30
2022-08-23T12:16:28.940Z,22.00
2022-08-23T12:19:02.890Z,21.80
2022-08-23T12:21:46.342Z,21.70
2022-08-23T12:24:31.018Z,21.30
2022-08-23T12:27:20.973Z,21.20
2022-08-23T12:30:00.569Z,21.00
2022-08-23T12:32:52.332Z,20.80
2022-08-23T12:35:40.073Z,20.70
2022-08-23T12:38:15.164Z,20.90
2022-08-23T12:40:45.904Z,20.90
2022-08-23T12:43:19.823Z,20.90
2022-08-23T12:45:56.553Z,20.80
2022-08-23T12:48:29.854Z,20.90
2022-08-23T12:51:02.954Z,21.00
2022-08-23T12:53:32.561Z,21.00
2022-08-23T12:56:32.400Z,21.10
2022-08-23T12:59:04.853Z,21.40
2022-08-23T13:01:37.293Z,21.70
2022-08-23T13:04:08.351Z,21.80
2022-08-23T13:06:45.122Z,21.80
2022-08-23T13:09:29.632Z,21.60
2022-08-23T13:11:59.046Z,21.40
2022-08-23T13:14:33.416Z,21.30
2022-08-23T13:17:36.685Z,21.30
2022-08-23T13:20:07.447Z,21.30
2022-08-23T13:22:37.227Z,21.10
2022-08-23T13:25:27.567Z,21.10
2022-08-23T13:27:56.131Z,21.10
2022-08-23T13:30:26.893Z,20.90
2022-08-23T13:33:10.687Z,20.80
2022-08-23T13:35:50.508Z,20.90
2022-08-23T13:38:30.908Z,21.00
2022-08-23T13:41:08.900Z,21.00
2022-08-23T13:43:42.180Z,21.00
2022-08-23T13:46:22.880Z,20.60
2022-08-23T13:49:02.459Z,20.40
2022-08-23T13:51:37.030Z,20.30
2022-08-23T13:54:08.272Z,20.30
2022-08-23T13:56:44.031Z,20.10
2022-08-23T13:59:17.710Z,20.10
2022-08-23T14:01:45.739Z,20.20
2022-08-23T14:04:13.453Z,20.20
2022-08-23T14:06:41.016Z,20.20
2022-08-23T14:09:09.565Z,20.30
2022-08-23T14:11:37.860Z,20.30
2022-08-23T14:14:06.038Z,20.30
2022-08-23T14:16:40.600Z,20.30
2022-08-23T14:19:54.524Z,20.20
2022-08-23T14:22:00.014Z,20.10
2022-08-23T14:24:28.336Z,20.10
2022-08-23T14:26:57.412Z,20.00
2022-08-23T14:29:28.051Z,20.10
2022-08-23T14:31:58.071Z,20.00
2022-08-23T14:34:26.686Z,19.90
2022-08-23T14:39:42.634Z,19.90
2022-08-23T14:42:21.984Z,19.90
2022-08-23T14:44:50.014Z,19.70
2022-08-23T14:47:18.817Z,19.70
2022-08-23T14:49:47.641Z,19.70
2022-08-23T14:52:16.712Z,19.70
2022-08-23T14:54:45.617Z,19.60
2022-08-23T14:57:13.196Z,19.60
2022-08-23T14:59:41.185Z,19.70
2022-08-23T15:02:12.118Z,19.70
2022-08-23T15:04:40.670Z,19.60
2022-08-23T15:07:23.743Z,19.60
2022-08-23T15:09:55.067Z,19.60
2022-08-23T15:15:14.532Z,19.50
2022-08-23T15:17:54.004Z,19.40
2022-08-23T15:20:26.196Z,19.40
2022-08-23T15:22:55.885Z,19.40
2022-08-23T15:25:25.990Z,19.40
2022-08-23T15:27:54.327Z,19.40
2022-08-23T15:30:23.540Z,19.30
2022-08-23T15:32:52.593Z,19.30
2022-08-23T15:35:25.890Z,19.20
2022-08-23T15:37:55.815Z,19.20
2022-08-23T15:40:25.653Z,19.10
2022-08-23T15:42:54.106Z,19.00
2022-08-23T15:45:21.823Z,19.00
2022-08-23T15:47:55.854Z,19.00
2022-08-23T15:50:49.585Z,18.90
2022-08-23T15:53:17.216Z,18.90
2022-08-23T15:55:46.251Z,18.80
2022-08-23T15:58:20.529Z,18.90
2022-08-23T16:00:49.568Z,18.90
2022-08-23T16:03:21.128Z,18.80
2022-08-23T16:05:53.918Z,18.80
2022-08-23T16:08:25.352Z,18.70
2022-08-23T16:10:57.245Z,18.70
2022-08-23T16:13:26.826Z,18.70
2022-08-23T16:15:54.499Z,18.70
2022-08-23T16:18:22.249Z,18.60
2022-08-23T16:20:54.202Z,18.60
2022-08-23T16:23:22.984Z,18.60
2022-08-23T16:25:50.698Z,18.70
2022-08-23T16:28:18.351Z,18.70
2022-08-23T16:30:46.074Z,18.60
2022-08-23T16:33:14.029Z,18.50
2022-08-23T16:35:41.616Z,18.50
2022-08-23T16:38:09.340Z,18.40
2022-08-23T16:40:37.057Z,18.40
2022-08-23T16:43:04.754Z,18.40
2022-08-23T16:45:32.499Z,18.40
2022-08-23T16:48:00.521Z,18.50
2022-08-23T16:50:28.299Z,18.50
2022-08-23T16:52:55.969Z,18.50
2022-08-23T16:55:24.474Z,18.50
2022-08-23T16:57:52.841Z,18.40
2022-08-23T17:00:21.087Z,18.40
2022-08-23T17:02:48.918Z,18.30
2022-08-23T17:05:19.216Z,18.30
2022-08-23T17:07:47.882Z,18.30
2022-08-23T17:10:17.537Z,18.40
2022-08-23T17:12:48.184Z,18.40
2022-08-23T17:15:20.580Z,18.30
2022-08-23T17:17:49.193Z,18.30
2022-08-23T17:20:19.908Z,18.30
2022-08-23T17:22:49.382Z,18.20
2022-08-23T17:25:17.541Z,18.10
2022-08-23T17:27:46.899Z,18.10
2022-08-23T17:30:20.572Z,18.00
2022-08-23T17:32:49.220Z,17.90
2022-08-23T17:35:27.106Z,17.80
2022-08-23T17:37:55.378Z,17.70
2022-08-23T17:40:30.659Z,17.60
2022-08-23T17:43:00.464Z,17.50
2022-08-23T17:45:28.676Z,17.50
2022-08-23T17:47:56.344Z,17.50
2022-08-23T17:50:24.536Z,17.40
2022-08-23T17:52:52.120Z,17.40
2022-08-23T17:55:20.013Z,17.40
2022-08-23T17:57:49.277Z,17.30
2022-08-23T18:00:19.354Z,17.20
2022-08-23T18:02:47.488Z,17.10
2022-08-23T18:05:15.811Z,16.90
2022-08-23T18:07:43.544Z,16.90
2022-08-23T18:10:12.447Z,16.90
2022-08-23T18:12:40.801Z,16.90
2022-08-23T18:15:09.682Z,16.70
2022-08-23T18:17:38.914Z,16.60
2022-08-23T18:20:10.038Z,16.50
2022-08-23T18:22:38.383Z,16.60
2022-08-23T18:25:10.344Z,16.50
2022-08-23T18:27:56.356Z,16.50
2022-08-23T18:30:24.027Z,16.40
2022-08-23T18:32:51.548Z,16.40
2022-08-23T18:35:19.751Z,16.40
2022-08-23T18:37:47.446Z,16.30
2022-08-23T18:40:15.158Z,16.20
2022-08-23T18:42:42.849Z,16.10
2022-08-23T18:45:11.037Z,16.10
2022-08-23T18:47:39.591Z,16.20
2022-08-23T18:50:11.018Z,16.20
2022-08-23T18:52:39.049Z,16.20
2022-08-23T18:55:07.534Z,16.10
2022-08-23T18:57:35.167Z,16.10
2022-08-23T19:00:04.875Z,16.10
2022-08-23T19:02:33.983Z,16.00
2022-08-23T19:05:04.247Z,16.00
2022-08-23T19:07:32.503Z,16.10
2022-08-23T19:10:01.376Z,16.00
2022-08-23T19:12:29.262Z,15.90
2022-08-23T19:14:57.136Z,15.90
2022-08-23T19:17:24.936Z,15.90
2022-08-23T19:19:52.926Z,15.90
2022-08-23T19:22:20.708Z,15.80
2022-08-23T19:24:48.410Z,15.80
2022-08-23T19:27:16.077Z,15.80
2022-08-23T19:29:43.736Z,15.70
2022-08-23T19:32:13.997Z,15.70
2022-08-23T19:34:42.281Z,15.70
2022-08-23T19:37:20.551Z,15.60
2022-08-23T19:39:50.870Z,15.50
2022-08-23T19:42:19.774Z,15.50
2022-08-23T19:44:48.036Z,15.40
2022-08-23T19:47:19.765Z,15.40
2022-08-23T19:49:48.569Z,15.30
2022-08-23T19:52:16.632Z,15.20
2022-08-23T19:54:44.316Z,15.00
2022-08-23T19:57:11.981Z,15.00
2022-08-23T19:59:40.445Z,14.80
2022-08-23T20:02:09.883Z,14.90
2022-08-23T20:04:37.583Z,15.00
2022-08-23T20:07:06.086Z,14.90
2022-08-23T20:09:33.903Z,15.00
2022-08-23T20:12:02.300Z,15.00
2022-08-23T20:14:33.631Z,15.00
2022-08-23T20:17:04.619Z,15.00
2022-08-23T20:19:32.223Z,15.00
2022-08-23T20:22:19.756Z,15.00
2022-08-23T20:24:52.641Z,15.00
2022-08-23T20:27:24.204Z,14.80
2022-08-23T20:30:00.286Z,14.90
2022-08-23T20:32:29.033Z,14.90
2022-08-23T20:34:56.745Z,14.90
2022-08-23T20:37:24.453Z,14.90
2022-08-23T20:39:52.493Z,14.90
2022-08-23T20:42:20.188Z,14.80
2022-08-23T20:44:47.856Z,14.80
2022-08-23T20:47:15.602Z,14.70
2022-08-23T20:49:43.332Z,14.60
2022-08-23T20:52:12.039Z,14.60
2022-08-23T20:54:39.792Z,14.40
2022-08-23T20:57:07.374Z,14.40
2022-08-23T20:59:35.328Z,14.50
2022-08-23T21:02:03.142Z,14.60
2022-08-23T21:04:30.841Z,14.50
2022-08-23T21:06:58.728Z,14.60
2022-08-23T21:09:29.624Z,14.70
2022-08-23T21:11:57.688Z,14.70
2022-08-23T21:14:25.478Z,14.70
2022-08-23T21:16:53.045Z,14.80
2022-08-23T21:19:20.672Z,14.80
2022-08-23T21:21:48.488Z,14.80
2022-08-23T21:24:16.565Z,14.70
2022-08-23T21:26:44.229Z,14.80
2022-08-23T21:29:11.865Z,14.70
2022-08-23T21:31:39.875Z,14.70
2022-08-23T21:34:08.403Z,14.70
2022-08-23T21:36:38.054Z,14.80
2022-08-23T21:39:06.106Z,14.80
2022-08-23T21:41:41.787Z,14.80
2022-08-23T21:44:13.568Z,14.80
2022-08-23T21:46:42.086Z,14.80
2022-08-23T21:49:11.370Z,14.80
2022-08-23T21:51:41.458Z,14.80
2022-08-23T21:54:11.176Z,14.80
2022-08-23T21:56:39.580Z,14.90
2022-08-23T21:59:11.107Z,14.80
2022-08-23T22:01:39.168Z,14.70
2022-08-23T22:04:08.644Z,14.60
2022-08-23T22:06:38.205Z,14.60
2022-08-23T22:09:08.227Z,14.60
2022-08-23T22:11:41.714Z,14.70
2022-08-23T22:14:11.805Z,14.70
2022-08-23T22:16:41.086Z,14.60
2022-08-23T22:19:08.736Z,14.60
2022-08-23T22:21:38.003Z,14.60
2022-08-23T22:24:07.175Z,14.60
2022-08-23T22:26:34.929Z,14.50
2022-08-23T22:29:02.529Z,14.50
2022-08-23T22:31:30.501Z,14.50
2022-08-23T22:33:58.171Z,14.60
2022-08-23T22:36:26.968Z,14.60
2022-08-23T22:38:54.870Z,14.60
2022-08-23T22:41:27.346Z,14.70
2022-08-23T22:43:56.068Z,14.70
2022-08-23T22:46:24.283Z,14.80
2022-08-23T22:48:53.627Z,14.60
2022-08-23T22:51:27.684Z,14.70
2022-08-23T22:53:59.438Z,14.70
2022-08-23T22:56:31.574Z,14.70
2022-08-23T22:58:59.799Z,14.70
2022-08-23T23:01:30.404Z,14.70
2022-08-23T23:04:00.089Z,14.60
2022-08-23T23:06:28.856Z,14.60
2022-08-23T23:08:57.445Z,14.60
2022-08-23T23:11:26.306Z,14.60
2022-08-23T23:13:54.053Z,14.70
2022-08-23T23:16:24.881Z,14.80
2022-08-23T23:19:11.872Z,14.80
2022-08-23T23:21:43.008Z,14.70
2022-08-23T23:24:13.760Z,14.70
2022-08-23T23:26:41.597Z,14.70
2022-08-23T23:29:12.382Z,14.70
2022-08-23T23:31:40.427Z,14.60
2022-08-23T23:34:08.281Z,14.60
2022-08-23T23:36:37.081Z,14.70
2022-08-23T23:39:06.672Z,14.70
2022-08-23T23:41:35.051Z,14.70
2022-08-23T23:44:03.874Z,14.60
2022-08-23T23:46:31.508Z,14.40
2022-08-23T23:48:59.123Z,14.50
2022-08-23T23:51:29.236Z,14.50
2022-08-23T23:53:58.350Z,14.50
2022-08-23T23:56:30.685Z,14.40
2022-08-23T23:58:59.354Z,14.40
